createdAt,value
2019-02-23T00:00:52.748Z,7.00
2019-02-23T00:03:22.439Z,7.00
2019-02-23T00:05:52.251Z,7.00
2019-02-23T00:08:22.495Z,6.90
2019-02-23T00:10:52.319Z,6.80
2019-02-23T00:13:21.735Z,6.70
2019-02-23T00:15:51.187Z,6.70
2019-02-23T00:18:20.608Z,6.70
2019-02-23T00:20:50.022Z,6.70
2019-02-23T00:23:19.688Z,6.60
2019-02-23T00:25:49.108Z,6.50
2019-02-23T00:28:18.599Z,6.50
2019-02-23T00:30:48.293Z,6.40
2019-02-23T00:33:17.727Z,6.30
2019-02-23T00:35:47.147Z,6.30
2019-02-23T00:38:16.604Z,6.20
2019-02-23T00:40:46.079Z,6.10
2019-02-23T00:43:16.883Z,6.10
2019-02-23T00:45:46.863Z,6.00
2019-02-23T00:48:16.282Z,6.00
2019-02-23T00:50:45.764Z,6.00
2019-02-23T00:53:15.733Z,5.90
2019-02-23T00:55:45.220Z,5.90
2019-02-23T00:58:14.638Z,5.80
2019-02-23T01:00:44.455Z,5.80
2019-02-23T01:03:14.183Z,5.80
2019-02-23T01:05:43.603Z,5.70
2019-02-23T01:08:13.131Z,5.70
2019-02-23T01:10:42.552Z,5.70
2019-02-23T01:13:12.217Z,5.60
2019-02-23T01:15:42.161Z,5.70
2019-02-23T01:18:11.639Z,5.60
2019-02-23T01:20:41.321Z,5.70
2019-02-23T01:23:11.128Z,5.70
2019-02-23T01:25:40.579Z,5.70
2019-02-23T01:28:10.173Z,5.80
2019-02-23T01:30:39.966Z,5.80
2019-02-23T01:33:09.550Z,5.90
2019-02-23T01:35:39.371Z,5.90
2019-02-23T01:38:09.612Z,6.00
2019-02-23T01:40:39.099Z,6.10
2019-02-23T01:43:08.525Z,6.00
2019-02-23T01:45:42.215Z,5.90
2019-02-23T01:48:10.412Z,5.90
2019-02-23T01:50:40.223Z,5.80
2019-02-23T01:53:10.315Z,5.70
2019-02-23T01:55:39.808Z,5.60
2019-02-23T01:58:09.536Z,5.60
2019-02-23T02:00:40.740Z,5.50
2019-02-23T02:03:10.591Z,5.50
2019-02-23T02:05:41.124Z,5.50
2019-02-23T02:08:10.867Z,5.50
2019-02-23T02:10:40.295Z,5.50
2019-02-23T02:13:10.359Z,5.60
2019-02-23T02:15:40.143Z,5.60
2019-02-23T02:18:11.004Z,5.70
2019-02-23T02:20:40.543Z,5.70
2019-02-23T02:23:10.107Z,5.80
2019-02-23T02:25:39.651Z,5.80
2019-02-23T02:28:09.440Z,5.90
2019-02-23T02:30:39.303Z,6.00
2019-02-23T02:33:08.823Z,6.00
2019-02-23T02:35:38.686Z,6.00
2019-02-23T02:38:08.245Z,6.10
2019-02-23T02:40:37.670Z,6.10
2019-02-23T02:43:08.008Z,6.00
2019-02-23T02:45:37.924Z,5.90
2019-02-23T02:48:08.487Z,5.80
2019-02-23T02:50:38.376Z,5.70
2019-02-23T02:53:08.517Z,5.50
2019-02-23T02:55:38.023Z,5.40
2019-02-23T02:58:07.517Z,5.30
2019-02-23T03:00:37.396Z,5.20
2019-02-23T03:03:06.824Z,5.20
2019-02-23T03:05:36.250Z,5.10
2019-02-23T03:08:06.565Z,5.00
2019-02-23T03:10:36.364Z,5.00
2019-02-23T03:13:05.796Z,5.00
2019-02-23T03:15:35.564Z,4.90
2019-02-23T03:18:04.988Z,4.80
2019-02-23T03:20:36.817Z,4.80
2019-02-23T03:23:05.975Z,4.80
2019-02-23T03:25:35.404Z,4.80
2019-02-23T03:28:04.894Z,4.70
2019-02-23T03:30:34.425Z,4.60
2019-02-23T03:33:04.117Z,4.60
2019-02-23T03:35:33.569Z,4.50
2019-02-23T03:38:03.372Z,4.50
2019-02-23T03:40:32.875Z,4.40
2019-02-23T03:43:02.298Z,4.30
2019-02-23T03:45:32.105Z,4.30
2019-02-23T03:48:01.832Z,4.20
2019-02-23T03:50:32.638Z,4.20
2019-02-23T03:53:02.335Z,4.20
2019-02-23T03:55:31.933Z,4.20
2019-02-23T03:58:01.415Z,4.10
2019-02-23T04:00:31.031Z,4.10
2019-02-23T04:03:00.449Z,4.10
2019-02-23T04:05:30.465Z,4.10
2019-02-23T04:08:00.330Z,4.10
2019-02-23T04:10:29.829Z,4.00
2019-02-23T04:12:59.463Z,4.00
2019-02-23T04:15:28.976Z,3.90
2019-02-23T04:17:58.585Z,3.90
2019-02-23T04:20:28.012Z,3.80
2019-02-23T04:22:57.503Z,3.80
2019-02-23T04:25:27.000Z,3.80
2019-02-23T04:27:56.522Z,3.80
2019-02-23T04:30:26.692Z,3.80
2019-02-23T04:32:56.103Z,3.70
2019-02-23T04:35:25.595Z,3.70
2019-02-23T04:37:55.047Z,3.60
2019-02-23T04:40:24.489Z,3.60
2019-02-23T04:42:54.428Z,3.60
2019-02-23T04:45:24.160Z,3.60
2019-02-23T04:47:53.652Z,3.60
2019-02-23T04:50:23.279Z,3.60
2019-02-23T04:52:53.998Z,3.60
2019-02-23T04:55:23.501Z,3.50
2019-02-23T04:57:53.310Z,3.50
2019-02-23T05:00:23.036Z,3.50
2019-02-23T05:02:53.024Z,3.50
2019-02-23T05:05:22.516Z,3.50
2019-02-23T05:07:52.307Z,3.50
2019-02-23T05:10:21.727Z,3.40
2019-02-23T05:12:51.156Z,3.30
2019-02-23T05:15:20.932Z,3.30
2019-02-23T05:17:50.701Z,3.30
2019-02-23T05:20:20.492Z,3.30
2019-02-23T05:22:49.958Z,3.30
2019-02-23T05:25:19.449Z,3.30
2019-02-23T05:27:48.939Z,3.20
2019-02-23T05:30:19.141Z,3.20
2019-02-23T05:32:48.949Z,3.20
2019-02-23T05:35:19.035Z,3.20
2019-02-23T05:37:48.567Z,3.20
2019-02-23T05:40:18.203Z,3.10
2019-02-23T05:42:47.625Z,3.10
2019-02-23T05:45:17.521Z,3.00
2019-02-23T05:47:47.030Z,3.00
2019-02-23T05:50:16.516Z,3.00
2019-02-23T05:52:46.163Z,3.00
2019-02-23T05:55:17.013Z,3.00
2019-02-23T05:57:46.445Z,3.10
2019-02-23T06:00:16.272Z,3.10
2019-02-23T06:02:45.813Z,3.00
2019-02-23T06:05:15.515Z,3.00
2019-02-23T06:07:45.298Z,3.00
2019-02-23T06:10:16.138Z,3.00
2019-02-23T06:12:45.625Z,3.10
2019-02-23T06:15:15.756Z,3.10
2019-02-23T06:17:45.173Z,3.10
2019-02-23T06:20:14.677Z,3.00
2019-02-23T06:22:46.693Z,3.00
2019-02-23T06:25:15.658Z,3.00
2019-02-23T06:27:45.248Z,2.90
2019-02-23T06:30:14.827Z,2.90
2019-02-23T06:32:44.255Z,2.80
2019-02-23T06:35:13.795Z,2.80
2019-02-23T06:37:43.720Z,2.80
2019-02-23T06:40:13.344Z,2.90
2019-02-23T06:42:43.296Z,2.90
2019-02-23T06:45:13.479Z,2.90
2019-02-23T06:47:43.028Z,2.90
2019-02-23T06:50:12.947Z,2.90
2019-02-23T06:52:42.523Z,2.90
2019-02-23T06:55:12.764Z,3.00
2019-02-23T06:57:42.441Z,3.00
2019-02-23T07:00:14.859Z,3.10
2019-02-23T07:02:44.547Z,3.10
2019-02-23T07:05:14.318Z,3.10
2019-02-23T07:07:43.856Z,3.20
2019-02-23T07:10:14.469Z,3.20
2019-02-23T07:12:44.272Z,3.20
2019-02-23T07:15:14.904Z,3.30
2019-02-23T07:17:44.455Z,3.40
2019-02-23T07:20:14.377Z,3.40
2019-02-23T07:22:44.411Z,3.50
2019-02-23T07:25:14.407Z,3.50
2019-02-23T07:27:43.848Z,3.50
2019-02-23T07:30:16.198Z,3.60
2019-02-23T07:32:46.112Z,3.60
2019-02-23T07:35:16.152Z,3.60
2019-02-23T07:37:48.403Z,3.60
2019-02-23T07:40:18.112Z,3.60
2019-02-23T07:42:47.699Z,3.70
2019-02-23T07:45:17.147Z,3.70
2019-02-23T07:47:46.784Z,3.90
2019-02-23T07:50:17.389Z,3.90
2019-02-23T07:52:47.280Z,3.90
2019-02-23T07:55:17.085Z,3.90
2019-02-23T07:57:46.844Z,4.00
2019-02-23T08:00:17.423Z,4.00
2019-02-23T08:02:46.847Z,4.10
2019-02-23T08:05:16.848Z,4.10
2019-02-23T08:07:46.795Z,4.20
2019-02-23T08:10:17.324Z,4.20
2019-02-23T08:12:46.911Z,4.30
2019-02-23T08:15:16.537Z,4.30
2019-02-23T08:17:46.219Z,4.40
2019-02-23T08:20:17.460Z,4.40
2019-02-23T08:22:47.040Z,4.50
2019-02-23T08:25:16.796Z,4.50
2019-02-23T08:27:47.183Z,4.50
2019-02-23T08:30:17.687Z,4.60
2019-02-23T08:32:47.145Z,4.60
2019-02-23T08:35:16.951Z,4.60
2019-02-23T08:37:46.404Z,4.70
2019-02-23T08:40:17.258Z,4.70
2019-02-23T08:42:49.263Z,4.70
2019-02-23T08:45:20.078Z,4.70
2019-02-23T08:47:56.981Z,4.80
2019-02-23T08:50:27.667Z,4.80
2019-02-23T08:52:57.177Z,4.90
2019-02-23T08:55:26.966Z,4.90
2019-02-23T08:57:58.175Z,5.00
2019-02-23T09:00:28.884Z,5.00
2019-02-23T09:02:58.375Z,5.00
2019-02-23T09:05:28.652Z,5.00
2019-02-23T09:07:58.296Z,5.10
2019-02-23T09:10:28.804Z,5.20
2019-02-23T09:12:58.369Z,5.30
2019-02-23T09:15:28.020Z,5.40
2019-02-23T09:18:01.565Z,5.40
2019-02-23T09:20:31.289Z,5.40
2019-02-23T09:23:01.983Z,5.40
2019-02-23T09:25:31.591Z,5.50
2019-02-23T09:28:01.313Z,5.50
2019-02-23T09:30:31.339Z,5.60
2019-02-23T09:33:00.857Z,5.60
2019-02-23T09:35:32.587Z,5.60
2019-02-23T09:38:04.015Z,5.60
2019-02-23T09:40:33.728Z,5.80
2019-02-23T09:43:03.321Z,6.00
2019-02-23T09:45:32.841Z,6.00
2019-02-23T09:48:03.302Z,6.10
2019-02-23T09:50:33.319Z,6.10
2019-02-23T09:53:11.210Z,6.20
2019-02-23T09:55:37.353Z,6.30
2019-02-23T09:58:07.048Z,6.30
2019-02-23T10:00:37.496Z,6.50
2019-02-23T10:03:08.398Z,6.90
2019-02-23T10:05:38.383Z,7.60
2019-02-23T10:08:08.143Z,8.30
2019-02-23T10:10:37.559Z,8.80
2019-02-23T10:13:07.412Z,9.10
2019-02-23T10:15:36.840Z,9.40
2019-02-23T10:18:06.676Z,9.80
2019-02-23T10:20:36.223Z,10.20
2019-02-23T10:23:06.051Z,10.60
2019-02-23T10:25:36.174Z,10.80
2019-02-23T10:28:08.191Z,10.90
2019-02-23T10:30:38.990Z,11.20
2019-02-23T10:33:08.891Z,11.50
2019-02-23T10:35:38.700Z,11.70
2019-02-23T10:38:08.131Z,11.70
2019-02-23T10:40:39.759Z,11.70
2019-02-23T10:43:09.269Z,12.00
2019-02-23T10:45:38.708Z,12.10
2019-02-23T10:48:08.399Z,12.20
2019-02-23T10:50:38.027Z,12.10
2019-02-23T10:53:08.031Z,12.00
2019-02-23T10:55:37.920Z,12.10
2019-02-23T10:58:07.576Z,12.50
2019-02-23T11:00:37.987Z,12.80
2019-02-23T11:03:07.868Z,13.00
2019-02-23T11:05:37.579Z,13.20
2019-02-23T11:08:07.432Z,13.50
2019-02-23T11:10:36.950Z,13.90
2019-02-23T11:13:06.769Z,14.20
2019-02-23T11:15:36.544Z,14.40
2019-02-23T11:18:06.515Z,14.80
2019-02-23T11:20:36.460Z,15.10
2019-02-23T11:23:06.373Z,15.20
2019-02-23T11:25:35.900Z,15.40
2019-02-23T11:28:06.607Z,15.80
2019-02-23T11:30:36.327Z,16.10
2019-02-23T11:33:06.246Z,16.20
2019-02-23T11:35:36.007Z,16.50
2019-02-23T11:38:05.789Z,16.90
2019-02-23T11:40:36.576Z,17.10
2019-02-23T11:43:06.267Z,17.20
2019-02-23T11:45:36.819Z,17.30
2019-02-23T11:48:06.371Z,17.30
2019-02-23T11:50:38.201Z,17.40
2019-02-23T11:53:09.167Z,17.80
2019-02-23T11:55:39.367Z,17.90
2019-02-23T11:58:09.492Z,18.00
2019-02-23T12:00:39.024Z,18.10
2019-02-23T12:03:08.664Z,18.20
2019-02-23T12:05:41.687Z,18.40
2019-02-23T12:08:11.160Z,18.30
2019-02-23T12:10:42.028Z,18.00
2019-02-23T12:13:12.832Z,18.30
2019-02-23T12:15:42.796Z,18.90
2019-02-23T12:18:12.807Z,19.20
2019-02-23T12:20:42.687Z,19.30
2019-02-23T12:23:12.444Z,19.60
2019-02-23T12:25:41.888Z,19.90
2019-02-23T12:28:13.672Z,20.40
2019-02-23T12:30:43.167Z,21.00
2019-02-23T12:33:12.603Z,21.40
2019-02-23T12:35:42.126Z,21.60
2019-02-23T12:38:11.601Z,21.80
2019-02-23T12:40:41.108Z,21.80
2019-02-23T12:43:11.326Z,21.70
2019-02-23T12:45:40.884Z,21.50
2019-02-23T12:48:10.359Z,21.50
2019-02-23T12:50:40.092Z,21.80
2019-02-23T12:53:09.799Z,21.80
2019-02-23T12:55:39.235Z,21.50
2019-02-23T12:58:08.827Z,21.60
2019-02-23T13:00:38.451Z,21.30
2019-02-23T13:03:08.157Z,21.20
2019-02-23T13:05:38.162Z,21.50
2019-02-23T13:08:07.879Z,21.80
2019-02-23T13:10:37.685Z,22.40
2019-02-23T13:13:20.977Z,22.90
2019-02-23T13:15:56.753Z,23.10
2019-02-23T13:18:48.025Z,23.10
2019-02-23T13:21:23.972Z,23.20
2019-02-23T13:24:28.291Z,23.60
2019-02-23T13:27:05.092Z,23.70
2019-02-23T13:30:14.436Z,22.90
2019-02-23T13:32:56.029Z,21.80
2019-02-23T13:35:34.227Z,21.30
2019-02-23T13:38:06.779Z,21.30
2019-02-23T13:40:47.952Z,21.20
2019-02-23T13:43:32.080Z,21.10
2019-02-23T13:46:22.914Z,20.80
2019-02-23T13:49:16.391Z,19.80
2019-02-23T13:51:49.043Z,19.30
2019-02-23T13:54:48.096Z,18.70
2019-02-23T13:57:39.011Z,18.70
2019-02-23T14:00:14.273Z,18.70
2019-02-23T14:03:03.230Z,18.80
2019-02-23T14:05:45.135Z,18.90
2019-02-23T14:08:39.723Z,19.10
2019-02-23T14:11:18.096Z,19.20
2019-02-23T14:13:57.062Z,19.30
2019-02-23T14:16:44.488Z,19.60
2019-02-23T14:19:33.967Z,20.20
2019-02-23T14:22:23.163Z,20.50
2019-02-23T14:25:11.523Z,20.30
2019-02-23T14:28:10.855Z,19.80
2019-02-23T14:31:13.700Z,19.30
2019-02-23T14:33:54.836Z,18.70
2019-02-23T14:36:33.880Z,18.40
2019-02-23T14:39:40.967Z,18.10
2019-02-23T14:42:22.859Z,17.70
2019-02-23T14:45:18.071Z,17.60
2019-02-23T14:48:24.575Z,17.70
2019-02-23T14:51:09.137Z,17.60
2019-02-23T14:53:44.670Z,17.50
2019-02-23T14:56:29.228Z,17.40
2019-02-23T14:59:07.655Z,17.20
2019-02-23T15:01:45.994Z,17.10
2019-02-23T15:04:30.730Z,16.90
2019-02-23T15:07:25.844Z,16.70
2019-02-23T15:10:14.784Z,16.50
2019-02-23T15:13:05.570Z,16.30
2019-02-23T15:15:59.152Z,16.00
2019-02-23T15:18:43.736Z,15.80
2019-02-23T15:21:35.623Z,15.70
2019-02-23T15:24:14.224Z,15.70
2019-02-23T15:27:04.939Z,15.60
2019-02-23T15:29:59.856Z,15.40
2019-02-23T15:32:48.899Z,15.40
2019-02-23T15:35:48.460Z,15.30
2019-02-23T15:38:38.535Z,15.20
2019-02-23T15:41:27.610Z,15.00
2019-02-23T15:44:17.704Z,14.70
2019-02-23T15:47:08.376Z,14.50
2019-02-23T15:49:38.005Z,14.40
2019-02-23T15:52:07.636Z,14.20
2019-02-23T15:54:37.632Z,14.00
2019-02-23T15:57:08.331Z,14.00
2019-02-23T15:59:37.983Z,14.00
2019-02-23T16:02:08.002Z,13.90
2019-02-23T16:04:38.052Z,13.70
2019-02-23T16:07:07.645Z,13.60
2019-02-23T16:09:37.215Z,13.50
2019-02-23T16:12:07.340Z,13.30
2019-02-23T16:14:36.768Z,13.20
2019-02-23T16:17:06.195Z,13.10
2019-02-23T16:19:35.912Z,13.00
2019-02-23T16:22:05.860Z,12.90
2019-02-23T16:24:35.782Z,12.70
2019-02-23T16:27:07.202Z,12.60
2019-02-23T16:29:38.857Z,12.50
2019-02-23T16:32:09.936Z,12.30
2019-02-23T16:34:58.829Z,12.20
2019-02-23T16:37:28.521Z,12.20
2019-02-23T16:39:58.423Z,12.00
2019-02-23T16:42:27.892Z,12.00
2019-02-23T16:44:57.346Z,11.90
2019-02-23T16:47:27.306Z,11.70
2019-02-23T16:49:59.229Z,11.70
2019-02-23T16:52:35.119Z,11.50
2019-02-23T16:55:05.390Z,11.50
2019-02-23T16:57:34.987Z,11.40
2019-02-23T17:00:06.549Z,11.30
2019-02-23T17:02:36.228Z,11.20
2019-02-23T17:05:07.516Z,11.10
2019-02-23T17:07:36.967Z,11.00
2019-02-23T17:10:08.232Z,11.00
2019-02-23T17:12:43.619Z,10.90
2019-02-23T17:15:13.577Z,10.80
2019-02-23T17:17:43.080Z,10.80
2019-02-23T17:20:12.507Z,10.70
2019-02-23T17:22:42.619Z,10.60
2019-02-23T17:25:12.534Z,10.60
2019-02-23T17:27:42.171Z,10.60
2019-02-23T17:30:31.246Z,10.60
2019-02-23T17:33:00.682Z,10.50
2019-02-23T17:35:30.523Z,10.40
2019-02-23T17:38:00.184Z,10.40
2019-02-23T17:40:31.136Z,10.40
2019-02-23T17:43:00.564Z,10.30
2019-02-23T17:45:30.139Z,10.30
2019-02-23T17:47:59.620Z,10.20
2019-02-23T17:50:29.196Z,10.20
2019-02-23T17:52:58.961Z,10.10
2019-02-23T17:55:28.499Z,10.00
2019-02-23T17:57:58.285Z,10.00
2019-02-23T18:00:27.874Z,9.90
2019-02-23T18:02:57.383Z,9.90
2019-02-23T18:05:33.724Z,9.80
2019-02-23T18:08:03.609Z,9.80
2019-02-23T18:10:33.033Z,9.70
2019-02-23T18:13:02.902Z,9.70
2019-02-23T18:15:32.399Z,9.60
2019-02-23T18:18:02.680Z,9.60
2019-02-23T18:20:32.234Z,9.60
2019-02-23T18:23:02.277Z,9.50
2019-02-23T18:25:31.840Z,9.40
2019-02-23T18:28:03.859Z,9.30
2019-02-23T18:30:33.396Z,9.30
2019-02-23T18:33:03.159Z,9.30
2019-02-23T18:35:32.784Z,9.20
2019-02-23T18:38:02.543Z,9.20
2019-02-23T18:40:32.496Z,9.10
2019-02-23T18:43:01.983Z,9.10
2019-02-23T18:45:47.444Z,9.00
2019-02-23T18:48:34.598Z,8.90
2019-02-23T18:51:04.785Z,8.80
2019-02-23T18:53:34.367Z,8.70
2019-02-23T18:56:05.478Z,8.70
2019-02-23T18:58:34.949Z,8.70
2019-02-23T19:01:04.571Z,8.60
2019-02-23T19:03:34.163Z,8.60
2019-02-23T19:06:03.662Z,8.60
2019-02-23T19:08:33.207Z,8.50
2019-02-23T19:11:02.672Z,8.50
2019-02-23T19:13:32.168Z,8.40
2019-02-23T19:16:01.655Z,8.40
2019-02-23T19:18:31.650Z,8.30
2019-02-23T19:21:02.207Z,8.30
2019-02-23T19:23:31.732Z,8.30
2019-02-23T19:26:01.179Z,8.20
2019-02-23T19:28:31.328Z,8.20
2019-02-23T19:31:03.017Z,8.10
2019-02-23T19:33:32.722Z,8.00
2019-02-23T19:36:02.594Z,8.00
2019-02-23T19:38:32.155Z,7.90
2019-02-23T19:41:01.780Z,7.90
2019-02-23T19:43:31.383Z,7.90
2019-02-23T19:46:01.836Z,7.80
2019-02-23T19:48:31.285Z,7.80
2019-02-23T19:51:03.999Z,7.70
2019-02-23T19:53:33.836Z,7.70
2019-02-23T19:56:03.503Z,7.60
2019-02-23T19:58:32.935Z,7.60
2019-02-23T20:01:03.560Z,7.50
2019-02-23T20:03:33.428Z,7.50
2019-02-23T20:06:03.977Z,7.50
2019-02-23T20:08:33.607Z,7.50
2019-02-23T20:11:03.219Z,7.40
2019-02-23T20:13:32.804Z,7.40
2019-02-23T20:16:02.565Z,7.40
2019-02-23T20:18:32.435Z,7.30
2019-02-23T20:21:02.496Z,7.30
2019-02-23T20:23:33.329Z,7.30
2019-02-23T20:26:02.839Z,7.30
2019-02-23T20:28:33.527Z,7.20
2019-02-23T20:31:03.592Z,7.20
2019-02-23T20:33:33.054Z,7.20
2019-02-23T20:36:03.563Z,7.10
2019-02-23T20:38:33.579Z,7.10
2019-02-23T20:41:03.319Z,7.10
2019-02-23T20:43:32.950Z,7.00
2019-02-23T20:46:02.644Z,6.90
2019-02-23T20:48:32.420Z,6.90
2019-02-23T20:51:01.999Z,6.90
2019-02-23T20:53:32.392Z,6.90
2019-02-23T20:56:02.069Z,6.80
2019-02-23T20:58:31.555Z,6.80
2019-02-23T21:01:01.305Z,6.70
2019-02-23T21:03:32.081Z,6.70
2019-02-23T21:06:01.767Z,6.60
2019-02-23T21:08:31.362Z,6.60
2019-02-23T21:11:01.039Z,6.60
2019-02-23T21:13:30.888Z,6.60
2019-02-23T21:16:01.041Z,6.50
2019-02-23T21:18:30.608Z,6.50
2019-02-23T21:21:00.363Z,6.50
2019-02-23T21:23:30.255Z,6.40
2019-02-23T21:26:00.017Z,6.40
2019-02-23T21:28:29.645Z,6.30
2019-02-23T21:30:59.414Z,6.30
2019-02-23T21:33:28.923Z,6.30
2019-02-23T21:35:58.419Z,6.20
2019-02-23T21:38:27.952Z,6.20
2019-02-23T21:40:57.378Z,6.20
2019-02-23T21:43:27.244Z,6.10
2019-02-23T21:45:57.011Z,6.10
2019-02-23T21:48:26.507Z,6.10
2019-02-23T21:50:56.575Z,6.10
2019-02-23T21:53:26.575Z,6.00
2019-02-23T21:55:56.556Z,6.00
2019-02-23T21:58:26.584Z,6.00
2019-02-23T22:00:56.204Z,6.10
2019-02-23T22:03:25.628Z,6.10
2019-02-23T22:05:55.206Z,6.10
2019-02-23T22:08:25.020Z,6.00
2019-02-23T22:10:54.512Z,5.90
2019-02-23T22:13:24.068Z,5.80
2019-02-23T22:15:53.648Z,5.70
2019-02-23T22:18:23.145Z,5.80
2019-02-23T22:20:52.827Z,5.90
2019-02-23T22:23:22.471Z,5.90
2019-02-23T22:25:52.373Z,5.70
2019-02-23T22:28:21.868Z,5.60
2019-02-23T22:30:51.379Z,5.50
2019-02-23T22:33:20.884Z,5.50
2019-02-23T22:35:50.388Z,5.40
2019-02-23T22:38:20.366Z,5.30
2019-02-23T22:40:50.058Z,5.20
2019-02-23T22:43:19.780Z,5.20
2019-02-23T22:45:49.963Z,5.20
2019-02-23T22:48:19.439Z,5.20
2019-02-23T22:50:49.244Z,5.10
2019-02-23T22:53:19.213Z,5.10
2019-02-23T22:55:49.052Z,5.10
2019-02-23T22:58:18.536Z,5.10
2019-02-23T23:00:56.255Z,5.10
2019-02-23T23:03:25.734Z,5.10
2019-02-23T23:05:55.232Z,5.10
2019-02-23T23:08:24.748Z,5.00
2019-02-23T23:10:54.166Z,5.00
2019-02-23T23:13:23.583Z,4.90
2019-02-23T23:15:53.108Z,4.90
2019-02-23T23:18:22.611Z,4.80
2019-02-23T23:20:52.275Z,4.80
2019-02-23T23:23:21.730Z,4.80
2019-02-23T23:25:51.518Z,4.70
2019-02-23T23:28:21.304Z,4.70
2019-02-23T23:30:51.861Z,4.70
2019-02-23T23:33:21.674Z,4.70
2019-02-23T23:35:51.164Z,4.70
2019-02-23T23:38:20.913Z,4.70
2019-02-23T23:40:50.424Z,4.60
2019-02-23T23:43:19.975Z,4.60
2019-02-23T23:45:49.711Z,4.50
2019-02-23T23:48:19.140Z,4.50
2019-02-23T23:50:48.644Z,4.50
2019-02-23T23:53:18.396Z,4.40
2019-02-23T23:55:48.327Z,4.40
2019-02-23T23:58:17.751Z,4.30
